Shoyu — JD3982 — position and weather

sailwx.info

Track history (hours):
 
Tides and Currents Weather Stations Pressure Air Temp Water Temp Dewpoint Dewpoint Depression Visibility Wind Speed Wind Dir Waves Ship Positions

Shoyu

Last reported at 2018-Feb-20 07:07 UTC. Time now 2018-Feb-23 15:55 UTC.
Position N 34°01' E 132°46'.

Length 75 m; draft 5 m.

Type: Cargo ship. MMSI: 431007421.

Date/timePositionNaut miles runAvg speedWind from/ knotsBaromVisibWave heightAir tempDewpointWater temp
2018-Feb-20 07:07N 34°01' E 132°46'1 9.5
2018-Feb-20 06:59N 34°00' E 132°45'5 9.7
2018-Feb-20 06:30N 33°57' E 132°42'3610.7
2018-Feb-20 03:08N 33°31' E 132°12'111.2
2018-Feb-20 03:00N 33°30' E 132°10'611.3
2018-Feb-20 02:29N 33°26' E 132°05'510.5
2018-Feb-20 01:59N 33°22' E 132°01'5 9.8
2018-Feb-20 01:30N 33°17' E 131°59'1 0.2
2018-Feb-19 19:34N 33°16' E 131°59'3 9.6
2018-Feb-19 19:13N 33°19' E 131°58'310.4
2018-Feb-19 18:54N 33°22' E 131°55'511.2
2018-Feb-19 18:25N 33°27' E 131°52'611.8
2018-Feb-19 17:57N 33°31' E 131°49'512.2
2018-Feb-19 17:30N 33°36' E 131°46'612.2
2018-Feb-19 17:00N 33°41' E 131°41'612.6
2018-Feb-19 16:30N 33°44' E 131°34'611.7
2018-Feb-19 16:00N 33°46' E 131°28'611.6
2018-Feb-19 15:30N 33°48' E 131°21'611.3
2018-Feb-19 15:00N 33°51' E 131°15'510.8
2018-Feb-19 14:30N 33°54' E 131°10'4 8.7
2018-Feb-19 14:00N 33°58' E 131°10'1 1.0
2018-Feb-19 13:29N 33°58' E 131°10'0 0.0
2018-Feb-19 12:59N 33°58' E 131°10'0 0.0
2018-Feb-19 12:29N 33°58' E 131°10'0 0.0
2018-Feb-19 11:59N 33°58' E 131°10'0 0.0
2018-Feb-19 11:29N 33°58' E 131°10'0 0.0
2018-Feb-19 10:59N 33°58' E 131°10'0 0.0
2018-Feb-19 10:26N 33°58' E 131°10'0 0.0
2018-Feb-19 09:59N 33°58' E 131°10'0 0.0
2018-Feb-19 09:29N 33°58' E 131°10'0 0.0
2018-Feb-19 08:59N 33°58' E 131°10'0 0.0
2018-Feb-19 08:23N 33°58' E 131°10'0 0.0
2018-Feb-19 07:59N 33°58' E 131°10'0 0.0
2018-Feb-19 07:29N 33°58' E 131°10'0 0.0
2018-Feb-19 06:59N 33°58' E 131°10'0 0.0
2018-Feb-19 06:26N 33°58' E 131°10'0 0.0
2018-Feb-19 05:59N 33°58' E 131°10'0 0.0
2018-Feb-19 05:29N 33°58' E 131°10'0 0.0
2018-Feb-19 04:59N 33°58' E 131°10'0 0.0
2018-Feb-19 04:28N 33°58' E 131°10'0 0.0
2018-Feb-19 03:59N 33°58' E 131°10'0 0.0
2018-Feb-19 03:29N 33°58' E 131°10'0 0.0
2018-Feb-19 02:59N 33°58' E 131°10'0 0.0
2018-Feb-19 02:26N 33°58' E 131°10'0 0.0
2018-Feb-19 01:58N 33°58' E 131°10'0 0.0
2018-Feb-19 01:29N 33°58' E 131°10'0 0.0
2018-Feb-19 00:58N 33°58' E 131°10'0 0.0
2018-Feb-19 00:29N 33°58' E 131°10'0 0.0
2018-Feb-18 23:59N 33°58' E 131°10'0 0.0
2018-Feb-18 23:26N 33°58' E 131°10'0 0.0
2018-Feb-18 22:52N 33°58' E 131°10'1 2.4
2018-Feb-18 22:30N 33°58' E 131°09'4 7.3
2018-Feb-18 22:00N 33°54' E 131°10'5 9.4
2018-Feb-18 21:30N 33°52' E 131°15'510.7
2018-Feb-18 21:00N 33°50' E 131°20'611.3
2018-Feb-18 20:30N 33°47' E 131°27'511.1
2018-Feb-18 20:00N 33°45' E 131°32'611.1
2018-Feb-18 19:29N 33°42' E 131°38'510.3
2018-Feb-18 19:00N 33°39' E 131°43'510.3
2018-Feb-18 18:30N 33°35' E 131°47'8 9.7
2018-Feb-18 17:41N 33°28' E 131°52'2 9.4
2018-Feb-18 17:30N 33°27' E 131°53'5 9.4
2018-Feb-18 17:00N 33°23' E 131°56'5 8.9
2018-Feb-18 16:29N 33°19' E 131°60'4 7.7
2018-Feb-18 15:59N 33°16' E 132°02'6 9.8
2018-Feb-18 15:22N 33°11' E 132°06'260 8.6
2018-Feb-17 09:10N 34°44' E 136°59'211.1
2018-Feb-17 08:59N 34°46' E 136°58'510.7
2018-Feb-17 08:29N 34°51' E 136°57'3 5.8
2018-Feb-17 07:54N 34°55' E 136°58'0 0.0
2018-Feb-17 07:30N 34°55' E 136°58'0 0.0
2018-Feb-17 07:00N 34°55' E 136°58'0 0.0
2018-Feb-17 06:24N 34°55' E 136°58'0 0.0
2018-Feb-17 04:48N 34°55' E 136°58'0 0.0
2018-Feb-17 04:30N 34°55' E 136°58'0 0.0
2018-Feb-17 03:48N 34°55' E 136°58'0 0.0
2018-Feb-17 03:24N 34°55' E 136°58'0 0.0
2018-Feb-17 03:00N 34°55' E 136°58'0 0.0
2018-Feb-17 02:06N 34°55' E 136°58'0 0.1
2018-Feb-17 02:00N 34°55' E 136°58'0 0.0
2018-Feb-17 01:30N 34°55' E 136°58'0 0.0
2018-Feb-17 01:00N 34°55' E 136°58'0 0.0
2018-Feb-17 00:30N 34°55' E 136°58'0 0.0
2018-Feb-17 00:00N 34°55' E 136°58'0 0.0
2018-Feb-16 23:24N 34°55' E 136°58'0 0.0
2018-Feb-16 23:00N 34°55' E 136°58'0 0.0
2018-Feb-16 22:30N 34°55' E 136°58'3 5.9
2018-Feb-16 22:00N 34°52' E 136°57'4 8.3
2018-Feb-16 21:29N 34°48' E 136°57'1 2.7
2018-Feb-16 20:59N 34°46' E 136°58'3 5.6
2018-Feb-16 20:30N 34°44' E 136°59'611.8
2018-Feb-16 19:59N 34°38' E 136°58'11 9.8
2018-Feb-16 18:54N 34°33' E 137°10'511.2
2018-Feb-16 18:30N 34°33' E 137°15'7710.4
2018-Feb-16 11:05N 34°35' E 138°49'410.5
2018-Feb-16 10:41N 34°36' E 138°54'410.1
2018-Feb-16 10:14N 34°38' E 138°59'411.3
2018-Feb-16 09:54N 34°41' E 139°02'2111.0
2018-Feb-16 08:00N 34°57' E 139°18'510.5
2018-Feb-16 07:30N 34°59' E 139°23'5 9.9
2018-Feb-16 06:58N 35°02' E 139°29'510.0
2018-Feb-16 06:29N 35°04' E 139°34'711.3
2018-Feb-16 05:54N 35°07' E 139°41'411.3
2018-Feb-16 05:30N 35°11' E 139°45'510.3
2018-Feb-16 05:00N 35°16' E 139°46'510.7
2018-Feb-16 04:30N 35°20' E 139°42'510.3
2018-Feb-16 04:00N 35°25' E 139°44'611.1
2018-Feb-16 03:30N 35°28' E 139°49'611.3
2018-Feb-16 02:59N 35°31' E 139°56'511.5
2018-Feb-16 02:30N 35°34' E 140°01'4 8.8
2018-Feb-16 02:01N 35°35' E 140°07'0 0.0
2018-Feb-16 01:28N 35°35' E 140°07'0 0.0
2018-Feb-16 00:58N 35°35' E 140°07'0 0.0
2018-Feb-16 00:28N 35°35' E 140°07'0 0.0
2018-Feb-15 23:55N 35°35' E 140°07'0 0.0
2018-Feb-15 23:28N 35°35' E 140°07'0 0.0
2018-Feb-15 23:00N 35°35' E 140°07'2 5.0
2018-Feb-15 22:31N 35°35' E 140°04'5 9.5
2018-Feb-15 22:00N 35°33' E 139°58'510.3
2018-Feb-15 21:30N 35°31' E 139°52'2 3.9
2018-Feb-15 20:55N 35°30' E 139°50'0 0.0
2018-Feb-15 20:28N 35°30' E 139°50'0 0.0
2018-Feb-15 19:58N 35°30' E 139°50'0 0.0
2018-Feb-15 19:28N 35°30' E 139°50'0 0.1
2018-Feb-15 18:58N 35°30' E 139°50'0 0.0
2018-Feb-15 18:28N 35°30' E 139°50'0 0.0
2018-Feb-15 17:58N 35°30' E 139°50'0 0.0
2018-Feb-15 17:28N 35°30' E 139°50'0 0.0
2018-Feb-15 16:58N 35°30' E 139°50'0 0.0
2018-Feb-15 16:28N 35°30' E 139°50'0 0.1
2018-Feb-15 15:58N 35°30' E 139°50'0 0.0
2018-Feb-15 15:19N 35°30' E 139°50'0 0.0
2018-Feb-15 14:58N 35°30' E 139°50'0 0.0
2018-Feb-15 14:28N 35°30' E 139°50'0 0.0
2018-Feb-15 13:58N 35°30' E 139°50'0 0.0
2018-Feb-15 13:22N 35°30' E 139°50'0 0.0
2018-Feb-15 12:55N 35°30' E 139°50'0 0.0
2018-Feb-15 12:25N 35°30' E 139°50'0 0.0
2018-Feb-15 11:52N 35°30' E 139°50'0 0.0
2018-Feb-15 11:28N 35°30' E 139°50'0 0.0
2018-Feb-15 10:58N 35°30' E 139°50'0 0.0
2018-Feb-15 10:28N 35°30' E 139°50'0 0.0
2018-Feb-15 09:58N 35°30' E 139°50'0 0.1
2018-Feb-15 09:16N 35°30' E 139°50'0 0.0
2018-Feb-15 07:46N 35°30' E 139°50'2 6.5
2018-Feb-15 07:29N 35°30' E 139°48'3 5.6
2018-Feb-15 06:58N 35°29' E 139°44'0 0.0
2018-Feb-15 06:25N 35°29' E 139°44'0 0.0
2018-Feb-15 05:58N 35°29' E 139°44'0 0.0
2018-Feb-15 05:28N 35°29' E 139°44'0 0.0
2018-Feb-15 04:58N 35°29' E 139°44'0 0.0
2018-Feb-15 04:28N 35°29' E 139°44'0 0.0
2018-Feb-15 03:58N 35°29' E 139°44'0 0.0
2018-Feb-15 03:28N 35°29' E 139°44'0 0.0
2018-Feb-15 02:58N 35°29' E 139°44'0 0.0
2018-Feb-15 02:28N 35°29' E 139°44'0 0.0
2018-Feb-15 01:58N 35°29' E 139°44'0 0.0
2018-Feb-15 01:28N 35°29' E 139°44'0 0.0
2018-Feb-15 00:58N 35°29' E 139°44'0 0.0
2018-Feb-15 00:28N 35°29' E 139°44'0 0.0
2018-Feb-14 23:58N 35°29' E 139°44'0 0.0
2018-Feb-14 23:28N 35°29' E 139°44'0 0.0
2018-Feb-14 22:58N 35°29' E 139°44'0 0.0
2018-Feb-14 22:28N 35°29' E 139°44'0 0.0
2018-Feb-14 21:58N 35°29' E 139°44'0 0.0
2018-Feb-14 21:29N 35°29' E 139°44'2 3.1
2018-Feb-14 21:00N 35°29' E 139°46'0 0.2
2018-Feb-14 20:29N 35°29' E 139°46'0 0.1
2018-Feb-14 19:59N 35°29' E 139°46'0 0.1
2018-Feb-14 19:30N 35°29' E 139°46'0 0.0
2018-Feb-14 18:59N 35°29' E 139°46'0 0.0
2018-Feb-14 18:29N 35°29' E 139°46'0 0.0
2018-Feb-14 17:59N 35°29' E 139°46'0 0.0
2018-Feb-14 17:29N 35°29' E 139°46'0 0.0
2018-Feb-14 17:00N 35°29' E 139°46'0 0.0
2018-Feb-14 16:29N 35°29' E 139°46'0 0.0
2018-Feb-14 15:56N 35°29' E 139°46'0 0.0
2018-Feb-14 15:29N 35°29' E 139°46'0 0.0
2018-Feb-14 14:59N 35°29' E 139°46'0 0.0
2018-Feb-14 14:29N 35°29' E 139°46'0 0.0
2018-Feb-14 13:59N 35°29' E 139°46'0 0.0
2018-Feb-14 13:29N 35°29' E 139°46'0 0.0
2018-Feb-14 13:00N 35°29' E 139°46'0 0.1
2018-Feb-14 12:29N 35°29' E 139°46'0 0.1
2018-Feb-14 11:59N 35°29' E 139°46'0 0.0
2018-Feb-14 11:29N 35°29' E 139°46'0 0.0
2018-Feb-14 10:59N 35°29' E 139°46'2 4.0
2018-Feb-14 10:30N 35°30' E 139°48'510.0
2018-Feb-14 10:00N 35°31' E 139°54'510.4
2018-Feb-14 09:30N 35°33' E 139°60'510.1
2018-Feb-14 09:00N 35°35' E 140°05'1 2.5
2018-Feb-14 08:30N 35°35' E 140°07'0 0.0
2018-Feb-14 07:58N 35°35' E 140°07'0 0.0
2018-Feb-14 07:28N 35°35' E 140°07'0 0.0
2018-Feb-14 06:58N 35°35' E 140°07'0 0.0
2018-Feb-14 06:28N 35°35' E 140°07'0 0.0
2018-Feb-14 05:58N 35°35' E 140°07'0 0.0
2018-Feb-14 05:28N 35°35' E 140°07'0 0.0
2018-Feb-14 04:58N 35°35' E 140°07'0 0.0
2018-Feb-14 04:28N 35°35' E 140°07'0 0.0
2018-Feb-14 04:00N 35°35' E 140°07'3 4.7
2018-Feb-14 03:25N 35°35' E 140°03'0 0.0
2018-Feb-14 02:55N 35°35' E 140°03'0 0.0
2018-Feb-14 02:30N 35°35' E 140°03'0 0.0
2018-Feb-14 01:58N 35°35' E 140°03'0 0.0
2018-Feb-14 01:27N 35°35' E 140°03'0 0.1
2018-Feb-14 01:01N 35°35' E 140°03'0 0.1
2018-Feb-14 00:30N 35°34' E 140°03'0 0.1
2018-Feb-14 00:00N 35°34' E 140°03'0 0.0
2018-Feb-13 23:24N 35°34' E 140°03'0 0.0
2018-Feb-13 22:58N 35°34' E 140°03'0 0.0
2018-Feb-13 22:28N 35°34' E 140°03'0 0.0
2018-Feb-13 21:55N 35°34' E 140°03'0 0.1
2018-Feb-13 21:30N 35°35' E 140°03'5 8.9
2018-Feb-13 20:58N 35°32' E 139°58'510.6
2018-Feb-13 20:30N 35°30' E 139°53'5 9.6
2018-Feb-13 20:00N 35°29' E 139°47'2 4.5
2018-Feb-13 19:28N 35°29' E 139°44'0 0.0
2018-Feb-13 18:58N 35°29' E 139°44'0 0.0
2018-Feb-13 18:28N 35°29' E 139°44'0 0.0
2018-Feb-13 17:58N 35°29' E 139°44'0 0.0
2018-Feb-13 17:28N 35°29' E 139°44'0 0.0
2018-Feb-13 16:58N 35°29' E 139°44'0 0.0
2018-Feb-13 16:28N 35°29' E 139°44'0 0.0
2018-Feb-13 15:58N 35°29' E 139°44'0 0.0
2018-Feb-13 15:28N 35°29' E 139°44'0 0.0
2018-Feb-13 14:58N 35°29' E 139°44'0 0.0
2018-Feb-13 14:28N 35°29' E 139°44'0 0.0
2018-Feb-13 13:58N 35°29' E 139°44'0 0.0
2018-Feb-13 13:28N 35°29' E 139°44'0 0.0
2018-Feb-13 12:58N 35°29' E 139°44'0 0.0
2018-Feb-13 12:28N 35°29' E 139°44'0 0.0
2018-Feb-13 11:58N 35°29' E 139°44'0 0.0
2018-Feb-13 11:28N 35°29' E 139°44'0 0.0
2018-Feb-13 10:55N 35°29' E 139°44'0 0.0
2018-Feb-13 10:28N 35°29' E 139°44'0 0.0
2018-Feb-13 09:58N 35°29' E 139°44'0 0.0
2018-Feb-13 09:28N 35°29' E 139°44'0 0.0
2018-Feb-13 08:58N 35°29' E 139°44'0 0.0
2018-Feb-13 08:28N 35°29' E 139°44'0 0.0
2018-Feb-13 07:58N 35°29' E 139°44'0 0.0
2018-Feb-13 07:28N 35°29' E 139°44'0 0.0
2018-Feb-13 06:58N 35°29' E 139°44'0 0.0
2018-Feb-13 06:28N 35°29' E 139°44'0 0.0
2018-Feb-13 05:58N 35°29' E 139°44'0 0.5
2018-Feb-13 05:30N 35°29' E 139°44'510.5
2018-Feb-13 05:00N 35°24' E 139°46'611.4
2018-Feb-13 04:31N 35°18' E 139°44'510.9
2018-Feb-13 04:00N 35°13' E 139°47'510.8
2018-Feb-13 03:30N 35°08' E 139°47'610.8
2018-Feb-13 03:00N 35°03' E 139°45'  
Track history (hours):
 
Tides and Currents Weather Stations Pressure Air Temp Water Temp Dewpoint Dewpoint Depression Visibility Wind Speed Wind Dir Waves Ship Positions

Shoyu

Last reported at 2018-Feb-20 07:07 UTC. Time now 2018-Feb-23 15:55 UTC.
Position N 34°01' E 132°46'.

Length 75 m; draft 5 m.

Type: Cargo ship. MMSI: 431007421.

Date/timePositionNaut miles runAvg speedWind from/ knotsBaromVisibWave heightAir tempDewpointWater temp
2018-Feb-20 07:07N 34°01' E 132°46'1 9.5
2018-Feb-20 06:59N 34°00' E 132°45'5 9.7
2018-Feb-20 06:30N 33°57' E 132°42'3610.7
2018-Feb-20 03:08N 33°31' E 132°12'111.2
2018-Feb-20 03:00N 33°30' E 132°10'611.3
2018-Feb-20 02:29N 33°26' E 132°05'510.5
2018-Feb-20 01:59N 33°22' E 132°01'5 9.8
2018-Feb-20 01:30N 33°17' E 131°59'1 0.2
2018-Feb-19 19:34N 33°16' E 131°59'3 9.6
2018-Feb-19 19:13N 33°19' E 131°58'310.4
2018-Feb-19 18:54N 33°22' E 131°55'511.2
2018-Feb-19 18:25N 33°27' E 131°52'611.8
2018-Feb-19 17:57N 33°31' E 131°49'512.2
2018-Feb-19 17:30N 33°36' E 131°46'612.2
2018-Feb-19 17:00N 33°41' E 131°41'612.6
2018-Feb-19 16:30N 33°44' E 131°34'611.7
2018-Feb-19 16:00N 33°46' E 131°28'611.6
2018-Feb-19 15:30N 33°48' E 131°21'611.3
2018-Feb-19 15:00N 33°51' E 131°15'510.8
2018-Feb-19 14:30N 33°54' E 131°10'4 8.7
2018-Feb-19 14:00N 33°58' E 131°10'1 1.0
2018-Feb-19 13:29N 33°58' E 131°10'0 0.0
2018-Feb-19 12:59N 33°58' E 131°10'0 0.0
2018-Feb-19 12:29N 33°58' E 131°10'0 0.0
2018-Feb-19 11:59N 33°58' E 131°10'0 0.0
2018-Feb-19 11:29N 33°58' E 131°10'0 0.0
2018-Feb-19 10:59N 33°58' E 131°10'0 0.0
2018-Feb-19 10:26N 33°58' E 131°10'0 0.0
2018-Feb-19 09:59N 33°58' E 131°10'0 0.0
2018-Feb-19 09:29N 33°58' E 131°10'0 0.0
2018-Feb-19 08:59N 33°58' E 131°10'0 0.0
2018-Feb-19 08:23N 33°58' E 131°10'0 0.0
2018-Feb-19 07:59N 33°58' E 131°10'0 0.0
2018-Feb-19 07:29N 33°58' E 131°10'0 0.0
2018-Feb-19 06:59N 33°58' E 131°10'0 0.0
2018-Feb-19 06:26N 33°58' E 131°10'0 0.0
2018-Feb-19 05:59N 33°58' E 131°10'0 0.0
2018-Feb-19 05:29N 33°58' E 131°10'0 0.0
2018-Feb-19 04:59N 33°58' E 131°10'0 0.0
2018-Feb-19 04:28N 33°58' E 131°10'0 0.0
2018-Feb-19 03:59N 33°58' E 131°10'0 0.0
2018-Feb-19 03:29N 33°58' E 131°10'0 0.0
2018-Feb-19 02:59N 33°58' E 131°10'0 0.0
2018-Feb-19 02:26N 33°58' E 131°10'0 0.0
2018-Feb-19 01:58N 33°58' E 131°10'0 0.0
2018-Feb-19 01:29N 33°58' E 131°10'0 0.0
2018-Feb-19 00:58N 33°58' E 131°10'0 0.0
2018-Feb-19 00:29N 33°58' E 131°10'0 0.0
2018-Feb-18 23:59N 33°58' E 131°10'0 0.0
2018-Feb-18 23:26N 33°58' E 131°10'0 0.0
2018-Feb-18 22:52N 33°58' E 131°10'1 2.4
2018-Feb-18 22:30N 33°58' E 131°09'4 7.3
2018-Feb-18 22:00N 33°54' E 131°10'5 9.4
2018-Feb-18 21:30N 33°52' E 131°15'510.7
2018-Feb-18 21:00N 33°50' E 131°20'611.3
2018-Feb-18 20:30N 33°47' E 131°27'511.1
2018-Feb-18 20:00N 33°45' E 131°32'611.1
2018-Feb-18 19:29N 33°42' E 131°38'510.3
2018-Feb-18 19:00N 33°39' E 131°43'510.3
2018-Feb-18 18:30N 33°35' E 131°47'8 9.7
2018-Feb-18 17:41N 33°28' E 131°52'2 9.4
2018-Feb-18 17:30N 33°27' E 131°53'5 9.4
2018-Feb-18 17:00N 33°23' E 131°56'5 8.9
2018-Feb-18 16:29N 33°19' E 131°60'4 7.7
2018-Feb-18 15:59N 33°16' E 132°02'6 9.8
2018-Feb-18 15:22N 33°11' E 132°06'260 8.6
2018-Feb-17 09:10N 34°44' E 136°59'211.1
2018-Feb-17 08:59N 34°46' E 136°58'510.7
2018-Feb-17 08:29N 34°51' E 136°57'3 5.8
2018-Feb-17 07:54N 34°55' E 136°58'0 0.0
2018-Feb-17 07:30N 34°55' E 136°58'0 0.0
2018-Feb-17 07:00N 34°55' E 136°58'0 0.0
2018-Feb-17 06:24N 34°55' E 136°58'0 0.0
2018-Feb-17 04:48N 34°55' E 136°58'0 0.0
2018-Feb-17 04:30N 34°55' E 136°58'0 0.0
2018-Feb-17 03:48N 34°55' E 136°58'0 0.0
2018-Feb-17 03:24N 34°55' E 136°58'0 0.0
2018-Feb-17 03:00N 34°55' E 136°58'0 0.0
2018-Feb-17 02:06N 34°55' E 136°58'0 0.1
2018-Feb-17 02:00N 34°55' E 136°58'0 0.0
2018-Feb-17 01:30N 34°55' E 136°58'0 0.0
2018-Feb-17 01:00N 34°55' E 136°58'0 0.0
2018-Feb-17 00:30N 34°55' E 136°58'0 0.0
2018-Feb-17 00:00N 34°55' E 136°58'0 0.0
2018-Feb-16 23:24N 34°55' E 136°58'0 0.0
2018-Feb-16 23:00N 34°55' E 136°58'0 0.0
2018-Feb-16 22:30N 34°55' E 136°58'3 5.9
2018-Feb-16 22:00N 34°52' E 136°57'4 8.3
2018-Feb-16 21:29N 34°48' E 136°57'1 2.7
2018-Feb-16 20:59N 34°46' E 136°58'3 5.6
2018-Feb-16 20:30N 34°44' E 136°59'611.8
2018-Feb-16 19:59N 34°38' E 136°58'11 9.8
2018-Feb-16 18:54N 34°33' E 137°10'511.2
2018-Feb-16 18:30N 34°33' E 137°15'7710.4
2018-Feb-16 11:05N 34°35' E 138°49'410.5
2018-Feb-16 10:41N 34°36' E 138°54'410.1
2018-Feb-16 10:14N 34°38' E 138°59'411.3
2018-Feb-16 09:54N 34°41' E 139°02'2111.0
2018-Feb-16 08:00N 34°57' E 139°18'510.5
2018-Feb-16 07:30N 34°59' E 139°23'5 9.9
2018-Feb-16 06:58N 35°02' E 139°29'510.0
2018-Feb-16 06:29N 35°04' E 139°34'711.3
2018-Feb-16 05:54N 35°07' E 139°41'411.3
2018-Feb-16 05:30N 35°11' E 139°45'510.3
2018-Feb-16 05:00N 35°16' E 139°46'510.7
2018-Feb-16 04:30N 35°20' E 139°42'510.3
2018-Feb-16 04:00N 35°25' E 139°44'611.1
2018-Feb-16 03:30N 35°28' E 139°49'611.3
2018-Feb-16 02:59N 35°31' E 139°56'511.5
2018-Feb-16 02:30N 35°34' E 140°01'4 8.8
2018-Feb-16 02:01N 35°35' E 140°07'0 0.0
2018-Feb-16 01:28N 35°35' E 140°07'0 0.0
2018-Feb-16 00:58N 35°35' E 140°07'0 0.0
2018-Feb-16 00:28N 35°35' E 140°07'0 0.0
2018-Feb-15 23:55N 35°35' E 140°07'0 0.0
2018-Feb-15 23:28N 35°35' E 140°07'0 0.0
2018-Feb-15 23:00N 35°35' E 140°07'2 5.0
2018-Feb-15 22:31N 35°35' E 140°04'5 9.5
2018-Feb-15 22:00N 35°33' E 139°58'510.3
2018-Feb-15 21:30N 35°31' E 139°52'2 3.9
2018-Feb-15 20:55N 35°30' E 139°50'0 0.0
2018-Feb-15 20:28N 35°30' E 139°50'0 0.0
2018-Feb-15 19:58N 35°30' E 139°50'0 0.0
2018-Feb-15 19:28N 35°30' E 139°50'0 0.1
2018-Feb-15 18:58N 35°30' E 139°50'0 0.0
2018-Feb-15 18:28N 35°30' E 139°50'0 0.0
2018-Feb-15 17:58N 35°30' E 139°50'0 0.0
2018-Feb-15 17:28N 35°30' E 139°50'0 0.0
2018-Feb-15 16:58N 35°30' E 139°50'0 0.0
2018-Feb-15 16:28N 35°30' E 139°50'0 0.1
2018-Feb-15 15:58N 35°30' E 139°50'0 0.0
2018-Feb-15 15:19N 35°30' E 139°50'0 0.0
2018-Feb-15 14:58N 35°30' E 139°50'0 0.0
2018-Feb-15 14:28N 35°30' E 139°50'0 0.0
2018-Feb-15 13:58N 35°30' E 139°50'0 0.0
2018-Feb-15 13:22N 35°30' E 139°50'0 0.0
2018-Feb-15 12:55N 35°30' E 139°50'0 0.0
2018-Feb-15 12:25N 35°30' E 139°50'0 0.0
2018-Feb-15 11:52N 35°30' E 139°50'0 0.0
2018-Feb-15 11:28N 35°30' E 139°50'0 0.0
2018-Feb-15 10:58N 35°30' E 139°50'0 0.0
2018-Feb-15 10:28N 35°30' E 139°50'0 0.0
2018-Feb-15 09:58N 35°30' E 139°50'0 0.1
2018-Feb-15 09:16N 35°30' E 139°50'0 0.0
2018-Feb-15 07:46N 35°30' E 139°50'2 6.5
2018-Feb-15 07:29N 35°30' E 139°48'3 5.6
2018-Feb-15 06:58N 35°29' E 139°44'0 0.0
2018-Feb-15 06:25N 35°29' E 139°44'0 0.0
2018-Feb-15 05:58N 35°29' E 139°44'0 0.0
2018-Feb-15 05:28N 35°29' E 139°44'0 0.0
2018-Feb-15 04:58N 35°29' E 139°44'0 0.0
2018-Feb-15 04:28N 35°29' E 139°44'0 0.0
2018-Feb-15 03:58N 35°29' E 139°44'0 0.0
2018-Feb-15 03:28N 35°29' E 139°44'0 0.0
2018-Feb-15 02:58N 35°29' E 139°44'0 0.0
2018-Feb-15 02:28N 35°29' E 139°44'0 0.0
2018-Feb-15 01:58N 35°29' E 139°44'0 0.0
2018-Feb-15 01:28N 35°29' E 139°44'0 0.0
2018-Feb-15 00:58N 35°29' E 139°44'0 0.0
2018-Feb-15 00:28N 35°29' E 139°44'0 0.0
2018-Feb-14 23:58N 35°29' E 139°44'0 0.0
2018-Feb-14 23:28N 35°29' E 139°44'0 0.0
2018-Feb-14 22:58N 35°29' E 139°44'0 0.0
2018-Feb-14 22:28N 35°29' E 139°44'0 0.0
2018-Feb-14 21:58N 35°29' E 139°44'0 0.0
2018-Feb-14 21:29N 35°29' E 139°44'2 3.1
2018-Feb-14 21:00N 35°29' E 139°46'0 0.2
2018-Feb-14 20:29N 35°29' E 139°46'0 0.1
2018-Feb-14 19:59N 35°29' E 139°46'0 0.1
2018-Feb-14 19:30N 35°29' E 139°46'0 0.0
2018-Feb-14 18:59N 35°29' E 139°46'0 0.0
2018-Feb-14 18:29N 35°29' E 139°46'0 0.0
2018-Feb-14 17:59N 35°29' E 139°46'0 0.0
2018-Feb-14 17:29N 35°29' E 139°46'0 0.0
2018-Feb-14 17:00N 35°29' E 139°46'0 0.0
2018-Feb-14 16:29N 35°29' E 139°46'0 0.0
2018-Feb-14 15:56N 35°29' E 139°46'0 0.0
2018-Feb-14 15:29N 35°29' E 139°46'0 0.0
2018-Feb-14 14:59N 35°29' E 139°46'0 0.0
2018-Feb-14 14:29N 35°29' E 139°46'0 0.0
2018-Feb-14 13:59N 35°29' E 139°46'0 0.0
2018-Feb-14 13:29N 35°29' E 139°46'0 0.0
2018-Feb-14 13:00N 35°29' E 139°46'0 0.1
2018-Feb-14 12:29N 35°29' E 139°46'0 0.1
2018-Feb-14 11:59N 35°29' E 139°46'0 0.0
2018-Feb-14 11:29N 35°29' E 139°46'0 0.0
2018-Feb-14 10:59N 35°29' E 139°46'2 4.0
2018-Feb-14 10:30N 35°30' E 139°48'510.0
2018-Feb-14 10:00N 35°31' E 139°54'510.4
2018-Feb-14 09:30N 35°33' E 139°60'510.1
2018-Feb-14 09:00N 35°35' E 140°05'1 2.5
2018-Feb-14 08:30N 35°35' E 140°07'0 0.0
2018-Feb-14 07:58N 35°35' E 140°07'0 0.0
2018-Feb-14 07:28N 35°35' E 140°07'0 0.0
2018-Feb-14 06:58N 35°35' E 140°07'0 0.0
2018-Feb-14 06:28N 35°35' E 140°07'0 0.0
2018-Feb-14 05:58N 35°35' E 140°07'0 0.0
2018-Feb-14 05:28N 35°35' E 140°07'0 0.0
2018-Feb-14 04:58N 35°35' E 140°07'0 0.0
2018-Feb-14 04:28N 35°35' E 140°07'0 0.0
2018-Feb-14 04:00N 35°35' E 140°07'3 4.7
2018-Feb-14 03:25N 35°35' E 140°03'0 0.0
2018-Feb-14 02:55N 35°35' E 140°03'0 0.0
2018-Feb-14 02:30N 35°35' E 140°03'0 0.0
2018-Feb-14 01:58N 35°35' E 140°03'0 0.0
2018-Feb-14 01:27N 35°35' E 140°03'0 0.1
2018-Feb-14 01:01N 35°35' E 140°03'0 0.1
2018-Feb-14 00:30N 35°34' E 140°03'0 0.1
2018-Feb-14 00:00N 35°34' E 140°03'0 0.0
2018-Feb-13 23:24N 35°34' E 140°03'0 0.0
2018-Feb-13 22:58N 35°34' E 140°03'0 0.0
2018-Feb-13 22:28N 35°34' E 140°03'0 0.0
2018-Feb-13 21:55N 35°34' E 140°03'0 0.1
2018-Feb-13 21:30N 35°35' E 140°03'5 8.9
2018-Feb-13 20:58N 35°32' E 139°58'510.6
2018-Feb-13 20:30N 35°30' E 139°53'5 9.6
2018-Feb-13 20:00N 35°29' E 139°47'2 4.5
2018-Feb-13 19:28N 35°29' E 139°44'0 0.0
2018-Feb-13 18:58N 35°29' E 139°44'0 0.0
2018-Feb-13 18:28N 35°29' E 139°44'0 0.0
2018-Feb-13 17:58N 35°29' E 139°44'0 0.0
2018-Feb-13 17:28N 35°29' E 139°44'0 0.0
2018-Feb-13 16:58N 35°29' E 139°44'0 0.0
2018-Feb-13 16:28N 35°29' E 139°44'0 0.0
2018-Feb-13 15:58N 35°29' E 139°44'0 0.0
2018-Feb-13 15:28N 35°29' E 139°44'0 0.0
2018-Feb-13 14:58N 35°29' E 139°44'0 0.0
2018-Feb-13 14:28N 35°29' E 139°44'0 0.0
2018-Feb-13 13:58N 35°29' E 139°44'0 0.0
2018-Feb-13 13:28N 35°29' E 139°44'0 0.0
2018-Feb-13 12:58N 35°29' E 139°44'0 0.0
2018-Feb-13 12:28N 35°29' E 139°44'0 0.0
2018-Feb-13 11:58N 35°29' E 139°44'0 0.0
2018-Feb-13 11:28N 35°29' E 139°44'0 0.0
2018-Feb-13 10:55N 35°29' E 139°44'0 0.0
2018-Feb-13 10:28N 35°29' E 139°44'0 0.0
2018-Feb-13 09:58N 35°29' E 139°44'0 0.0
2018-Feb-13 09:28N 35°29' E 139°44'0 0.0
2018-Feb-13 08:58N 35°29' E 139°44'0 0.0
2018-Feb-13 08:28N 35°29' E 139°44'0 0.0
2018-Feb-13 07:58N 35°29' E 139°44'0 0.0
2018-Feb-13 07:28N 35°29' E 139°44'0 0.0
2018-Feb-13 06:58N 35°29' E 139°44'0 0.0
2018-Feb-13 06:28N 35°29' E 139°44'0 0.0
2018-Feb-13 05:58N 35°29' E 139°44'0 0.5
2018-Feb-13 05:30N 35°29' E 139°44'510.5
2018-Feb-13 05:00N 35°24' E 139°46'611.4
2018-Feb-13 04:31N 35°18' E 139°44'510.9
2018-Feb-13 04:00N 35°13' E 139°47'510.8
2018-Feb-13 03:30N 35°08' E 139°47'610.8
2018-Feb-13 03:00N 35°03' E 139°45'  

Dump ship's entire track history